sensor_id;sensor_type;location;lat;lon;timestamp;temperature;humidity
10278;DHT22;5184;51.376;7.148;2022-10-17T00:01:48;13.60;99.90
10278;DHT22;5184;51.376;7.148;2022-10-17T00:04:14;13.60;99.90
10278;DHT22;5184;51.376;7.148;2022-10-17T00:06:41;13.60;99.90
10278;DHT22;5184;51.376;7.148;2022-10-17T00:09:08;13.70;99.90
10278;DHT22;5184;51.376;7.148;2022-10-17T00:11:36;13.70;99.90
10278;DHT22;5184;51.376;7.148;2022-10-17T00:14:02;13.70;99.90
10278;DHT22;5184;51.376;7.148;2022-10-17T00:16:30;13.70;99.90
10278;DHT22;5184;51.376;7.148;2022-10-17T00:18:56;13.70;99.90
10278;DHT22;5184;51.376;7.148;2022-10-17T00:21:22;13.70;99.90
10278;DHT22;5184;51.376;7.148;2022-10-17T00:23:49;13.70;99.90
10278;DHT22;5184;51.376;7.148;2022-10-17T00:26:16;13.70;99.90
10278;DHT22;5184;51.376;7.148;2022-10-17T00:28:45;13.70;99.90
10278;DHT22;5184;51.376;7.148;2022-10-17T00:31:11;13.60;99.90
10278;DHT22;5184;51.376;7.148;2022-10-17T00:33:37;13.70;99.90
10278;DHT22;5184;51.376;7.148;2022-10-17T00:36:06;13.70;99.90
10278;DHT22;5184;51.376;7.148;2022-10-17T00:38:32;13.70;99.90
10278;DHT22;5184;51.376;7.148;2022-10-17T00:40:58;13.70;99.90
10278;DHT22;5184;51.376;7.148;2022-10-17T00:43:25;13.80;99.90
10278;DHT22;5184;51.376;7.148;2022-10-17T00:45:51;13.80;99.90
10278;DHT22;5184;51.376;7.148;2022-10-17T00:48:19;14.00;99.90
10278;DHT22;5184;51.376;7.148;2022-10-17T00:50:45;13.90;99.90
10278;DHT22;5184;51.376;7.148;2022-10-17T00:53:12;14.00;99.90
10278;DHT22;5184;51.376;7.148;2022-10-17T00:55:44;14.00;99.90
10278;DHT22;5184;51.376;7.148;2022-10-17T00:58:09;14.00;99.90
10278;DHT22;5184;51.376;7.148;2022-10-17T01:00:36;14.10;99.90
10278;DHT22;5184;51.376;7.148;2022-10-17T01:03:03;14.10;99.90
10278;DHT22;5184;51.376;7.148;2022-10-17T01:05:29;14.10;99.90
10278;DHT22;5184;51.376;7.148;2022-10-17T01:07:56;14.20;99.90
10278;DHT22;5184;51.376;7.148;2022-10-17T01:10:24;14.30;99.90
10278;DHT22;5184;51.376;7.148;2022-10-17T01:12:54;14.30;99.90
10278;DHT22;5184;51.376;7.148;2022-10-17T01:15:28;14.30;99.90
10278;DHT22;5184;51.376;7.148;2022-10-17T01:18:00;14.40;99.90
10278;DHT22;5184;51.376;7.148;2022-10-17T01:20:44;14.50;99.90
10278;DHT22;5184;51.376;7.148;2022-10-17T01:26:18;14.90;99.90
10278;DHT22;5184;51.376;7.148;2022-10-17T01:28:50;14.90;99.90
10278;DHT22;5184;51.376;7.148;2022-10-17T01:31:11;15.00;99.90
10278;DHT22;5184;51.376;7.148;2022-10-17T01:36:38;15.10;99.90
10278;DHT22;5184;51.376;7.148;2022-10-17T01:39:15;15.30;99.90
10278;DHT22;5184;51.376;7.148;2022-10-17T01:41:51;15.40;99.90
10278;DHT22;5184;51.376;7.148;2022-10-17T01:44:18;15.30;99.90
10278;DHT22;5184;51.376;7.148;2022-10-17T01:46:45;15.30;99.90
10278;DHT22;5184;51.376;7.148;2022-10-17T01:49:10;15.30;99.90
10278;DHT22;5184;51.376;7.148;2022-10-17T01:51:40;15.40;99.90
10278;DHT22;5184;51.376;7.148;2022-10-17T01:54:08;15.50;99.90
10278;DHT22;5184;51.376;7.148;2022-10-17T01:56:31;15.70;99.90
10278;DHT22;5184;51.376;7.148;2022-10-17T01:59:02;15.90;99.90
10278;DHT22;5184;51.376;7.148;2022-10-17T02:01:27;16.00;99.90
10278;DHT22;5184;51.376;7.148;2022-10-17T02:03:54;16.10;99.90
10278;DHT22;5184;51.376;7.148;2022-10-17T02:06:21;16.20;99.90
10278;DHT22;5184;51.376;7.148;2022-10-17T02:08:48;16.20;99.90
10278;DHT22;5184;51.376;7.148;2022-10-17T02:11:16;16.20;99.90
10278;DHT22;5184;51.376;7.148;2022-10-17T02:14:04;16.10;99.90
10278;DHT22;5184;51.376;7.148;2022-10-17T02:16:33;16.00;99.90
10278;DHT22;5184;51.376;7.148;2022-10-17T02:24:46;15.80;99.90
10278;DHT22;5184;51.376;7.148;2022-10-17T02:27:32;15.70;99.90
10278;DHT22;5184;51.376;7.148;2022-10-17T02:29:57;15.70;99.90
10278;DHT22;5184;51.376;7.148;2022-10-17T02:32:27;15.70;99.90
10278;DHT22;5184;51.376;7.148;2022-10-17T02:34:51;15.80;99.90
10278;DHT22;5184;51.376;7.148;2022-10-17T02:37:18;15.80;99.90
10278;DHT22;5184;51.376;7.148;2022-10-17T02:39:45;16.00;99.90
10278;DHT22;5184;51.376;7.148;2022-10-17T02:42:13;16.00;99.90
10278;DHT22;5184;51.376;7.148;2022-10-17T02:44:41;16.10;99.90
10278;DHT22;5184;51.376;7.148;2022-10-17T02:47:26;16.10;99.90
10278;DHT22;5184;51.376;7.148;2022-10-17T02:49:52;16.10;99.90
10278;DHT22;5184;51.376;7.148;2022-10-17T02:52:28;16.00;99.90
10278;DHT22;5184;51.376;7.148;2022-10-17T02:54:56;16.00;99.90
10278;DHT22;5184;51.376;7.148;2022-10-17T02:57:23;16.00;99.90
10278;DHT22;5184;51.376;7.148;2022-10-17T02:59:47;16.00;99.90
10278;DHT22;5184;51.376;7.148;2022-10-17T03:02:14;15.90;99.90
10278;DHT22;5184;51.376;7.148;2022-10-17T03:04:42;15.80;99.90
10278;DHT22;5184;51.376;7.148;2022-10-17T03:07:09;15.70;99.90
10278;DHT22;5184;51.376;7.148;2022-10-17T03:09:36;15.80;99.90
10278;DHT22;5184;51.376;7.148;2022-10-17T03:12:04;15.90;99.90
10278;DHT22;5184;51.376;7.148;2022-10-17T03:14:30;15.80;99.90
10278;DHT22;5184;51.376;7.148;2022-10-17T03:16:57;16.00;99.90
10278;DHT22;5184;51.376;7.148;2022-10-17T03:19:24;16.10;99.90
10278;DHT22;5184;51.376;7.148;2022-10-17T03:21:50;16.20;99.90
10278;DHT22;5184;51.376;7.148;2022-10-17T03:24:18;16.20;99.90
10278;DHT22;5184;51.376;7.148;2022-10-17T03:26:45;16.20;99.90
10278;DHT22;5184;51.376;7.148;2022-10-17T03:29:12;16.20;99.90
10278;DHT22;5184;51.376;7.148;2022-10-17T03:31:38;16.30;99.90
10278;DHT22;5184;51.376;7.148;2022-10-17T03:34:05;16.30;37.40
10278;DHT22;5184;51.376;7.148;2022-10-17T03:36:31;16.50;1.00
10278;DHT22;5184;51.376;7.148;2022-10-17T03:38:58;16.60;1.00
10278;DHT22;5184;51.376;7.148;2022-10-17T03:41:25;16.60;1.00
10278;DHT22;5184;51.376;7.148;2022-10-17T03:43:53;16.70;99.90
10278;DHT22;5184;51.376;7.148;2022-10-17T03:46:20;16.70;99.90
10278;DHT22;5184;51.376;7.148;2022-10-17T03:48:47;16.70;99.90
10278;DHT22;5184;51.376;7.148;2022-10-17T03:51:14;16.70;99.90
10278;DHT22;5184;51.376;7.148;2022-10-17T03:53:40;16.60;99.90
10278;DHT22;5184;51.376;7.148;2022-10-17T03:56:11;16.60;99.90
10278;DHT22;5184;51.376;7.148;2022-10-17T03:58:37;16.60;1.00
10278;DHT22;5184;51.376;7.148;2022-10-17T04:01:06;16.50;1.00
10278;DHT22;5184;51.376;7.148;2022-10-17T04:03:32;16.50;1.00
10278;DHT22;5184;51.376;7.148;2022-10-17T04:05:59;18.40;1.00
10278;DHT22;5184;51.376;7.148;2022-10-17T04:08:25;16.40;1.00
10278;DHT22;5184;51.376;7.148;2022-10-17T04:10:51;16.40;1.00
10278;DHT22;5184;51.376;7.148;2022-10-17T04:13:18;16.50;1.00
10278;DHT22;5184;51.376;7.148;2022-10-17T04:16:02;16.50;1.00
10278;DHT22;5184;51.376;7.148;2022-10-17T04:18:26;16.50;1.00
10278;DHT22;5184;51.376;7.148;2022-10-17T04:20:53;16.60;99.90
10278;DHT22;5184;51.376;7.148;2022-10-17T04:23:19;16.60;99.90
10278;DHT22;5184;51.376;7.148;2022-10-17T04:25:46;16.70;1.00
10278;DHT22;5184;51.376;7.148;2022-10-17T04:28:12;16.80;97.30
10278;DHT22;5184;51.376;7.148;2022-10-17T04:30:40;16.80;85.20
10278;DHT22;5184;51.376;7.148;2022-10-17T04:33:07;16.90;6.90
10278;DHT22;5184;51.376;7.148;2022-10-17T04:35:34;16.80;99.90
10278;DHT22;5184;51.376;7.148;2022-10-17T04:38:01;16.80;99.90
10278;DHT22;5184;51.376;7.148;2022-10-17T04:40:28;16.90;1.00
10278;DHT22;5184;51.376;7.148;2022-10-17T04:42:54;17.00;1.60
10278;DHT22;5184;51.376;7.148;2022-10-17T04:45:21;17.00;1.00
10278;DHT22;5184;51.376;7.148;2022-10-17T04:47:47;17.00;99.90
10278;DHT22;5184;51.376;7.148;2022-10-17T04:50:15;17.10;1.00
10278;DHT22;5184;51.376;7.148;2022-10-17T04:52:42;17.10;1.00
10278;DHT22;5184;51.376;7.148;2022-10-17T04:55:09;17.10;1.00
10278;DHT22;5184;51.376;7.148;2022-10-17T04:57:37;17.10;99.90
10278;DHT22;5184;51.376;7.148;2022-10-17T05:00:04;17.10;1.00
10278;DHT22;5184;51.376;7.148;2022-10-17T05:02:31;17.10;1.00
10278;DHT22;5184;51.376;7.148;2022-10-17T05:04:58;17.10;99.90
10278;DHT22;5184;51.376;7.148;2022-10-17T05:07:24;17.00;1.00
10278;DHT22;5184;51.376;7.148;2022-10-17T05:09:51;17.00;1.00
10278;DHT22;5184;51.376;7.148;2022-10-17T05:12:18;17.00;99.90
10278;DHT22;5184;51.376;7.148;2022-10-17T05:14:45;17.10;99.90
10278;DHT22;5184;51.376;7.148;2022-10-17T05:17:12;17.10;99.90
10278;DHT22;5184;51.376;7.148;2022-10-17T05:19:40;17.10;99.90
10278;DHT22;5184;51.376;7.148;2022-10-17T05:22:06;17.00;99.90
10278;DHT22;5184;51.376;7.148;2022-10-17T05:24:33;17.10;99.90
10278;DHT22;5184;51.376;7.148;2022-10-17T05:26:59;17.10;1.00
10278;DHT22;5184;51.376;7.148;2022-10-17T05:29:26;17.10;99.90
10278;DHT22;5184;51.376;7.148;2022-10-17T05:31:53;17.00;99.90
10278;DHT22;5184;51.376;7.148;2022-10-17T05:34:20;17.00;1.00
10278;DHT22;5184;51.376;7.148;2022-10-17T05:36:47;17.00;99.90
10278;DHT22;5184;51.376;7.148;2022-10-17T05:39:15;17.10;1.00
10278;DHT22;5184;51.376;7.148;2022-10-17T05:41:41;17.10;1.00
10278;DHT22;5184;51.376;7.148;2022-10-17T05:44:08;17.10;1.00
10278;DHT22;5184;51.376;7.148;2022-10-17T05:46:34;17.10;99.90
10278;DHT22;5184;51.376;7.148;2022-10-17T05:49:02;17.10;1.00
10278;DHT22;5184;51.376;7.148;2022-10-17T05:51:31;17.10;1.00
10278;DHT22;5184;51.376;7.148;2022-10-17T05:53:57;17.10;1.00
10278;DHT22;5184;51.376;7.148;2022-10-17T05:56:24;17.10;1.00
10278;DHT22;5184;51.376;7.148;2022-10-17T05:58:50;17.00;1.00
10278;DHT22;5184;51.376;7.148;2022-10-17T06:01:17;17.10;1.00
10278;DHT22;5184;51.376;7.148;2022-10-17T06:03:44;17.10;99.90
10278;DHT22;5184;51.376;7.148;2022-10-17T06:06:11;17.10;99.90
10278;DHT22;5184;51.376;7.148;2022-10-17T06:08:37;17.10;99.90
10278;DHT22;5184;51.376;7.148;2022-10-17T06:11:04;17.20;99.80
10278;DHT22;5184;51.376;7.148;2022-10-17T06:13:32;17.20;93.10
10278;DHT22;5184;51.376;7.148;2022-10-17T06:15:58;17.10;87.70
10278;DHT22;5184;51.376;7.148;2022-10-17T06:18:25;17.20;1.00
10278;DHT22;5184;51.376;7.148;2022-10-17T06:20:51;17.20;87.70
10278;DHT22;5184;51.376;7.148;2022-10-17T06:23:18;17.10;99.90
10278;DHT22;5184;51.376;7.148;2022-10-17T06:25:45;17.10;91.80
10278;DHT22;5184;51.376;7.148;2022-10-17T06:28:12;17.20;1.00
10278;DHT22;5184;51.376;7.148;2022-10-17T06:30:39;17.20;1.00
10278;DHT22;5184;51.376;7.148;2022-10-17T06:33:07;17.20;1.00
10278;DHT22;5184;51.376;7.148;2022-10-17T06:35:34;17.20;40.30
10278;DHT22;5184;51.376;7.148;2022-10-17T06:38:02;17.10;31.90
10278;DHT22;5184;51.376;7.148;2022-10-17T06:40:27;17.10;99.90
10278;DHT22;5184;51.376;7.148;2022-10-17T06:42:54;17.10;1.00
10278;DHT22;5184;51.376;7.148;2022-10-17T06:45:20;17.10;99.90
10278;DHT22;5184;51.376;7.148;2022-10-17T06:47:47;17.10;99.90
10278;DHT22;5184;51.376;7.148;2022-10-17T06:50:14;17.10;1.00
10278;DHT22;5184;51.376;7.148;2022-10-17T06:52:41;17.00;1.00
10278;DHT22;5184;51.376;7.148;2022-10-17T06:55:08;17.10;1.00
10278;DHT22;5184;51.376;7.148;2022-10-17T06:57:34;17.00;1.00
10278;DHT22;5184;51.376;7.148;2022-10-17T07:00:01;17.00;99.90
10278;DHT22;5184;51.376;7.148;2022-10-17T07:02:27;17.00;99.90
10278;DHT22;5184;51.376;7.148;2022-10-17T07:04:55;17.00;1.00
10278;DHT22;5184;51.376;7.148;2022-10-17T07:07:21;17.00;1.00
10278;DHT22;5184;51.376;7.148;2022-10-17T07:09:49;17.10;99.90
10278;DHT22;5184;51.376;7.148;2022-10-17T07:12:15;17.20;1.00
10278;DHT22;5184;51.376;7.148;2022-10-17T07:14:41;17.30;99.90
10278;DHT22;5184;51.376;7.148;2022-10-17T07:17:08;17.30;99.90
10278;DHT22;5184;51.376;7.148;2022-10-17T07:19:35;17.30;99.90
10278;DHT22;5184;51.376;7.148;2022-10-17T07:22:03;17.30;99.90
10278;DHT22;5184;51.376;7.148;2022-10-17T07:24:29;17.30;99.90
10278;DHT22;5184;51.376;7.148;2022-10-17T07:26:56;17.40;1.00
10278;DHT22;5184;51.376;7.148;2022-10-17T07:29:22;17.30;1.00
10278;DHT22;5184;51.376;7.148;2022-10-17T07:31:49;17.40;99.90
10278;DHT22;5184;51.376;7.148;2022-10-17T07:34:16;17.40;99.90
10278;DHT22;5184;51.376;7.148;2022-10-17T07:36:42;15.80;99.90
10278;DHT22;5184;51.376;7.148;2022-10-17T07:39:10;17.40;99.90
10278;DHT22;5184;51.376;7.148;2022-10-17T07:41:36;17.40;99.90
10278;DHT22;5184;51.376;7.148;2022-10-17T07:44:04;17.50;99.90
10278;DHT22;5184;51.376;7.148;2022-10-17T07:46:30;17.40;99.90
10278;DHT22;5184;51.376;7.148;2022-10-17T07:48:57;17.50;1.00
10278;DHT22;5184;51.376;7.148;2022-10-17T07:51:23;17.60;13.60
10278;DHT22;5184;51.376;7.148;2022-10-17T07:53:50;17.60;1.00
10278;DHT22;5184;51.376;7.148;2022-10-17T07:56:16;17.60;18.60
10278;DHT22;5184;51.376;7.148;2022-10-17T07:58:44;17.60;1.00
10278;DHT22;5184;51.376;7.148;2022-10-17T08:01:11;17.60;1.00
10278;DHT22;5184;51.376;7.148;2022-10-17T08:03:38;17.60;1.00
10278;DHT22;5184;51.376;7.148;2022-10-17T08:06:05;17.60;1.00
10278;DHT22;5184;51.376;7.148;2022-10-17T08:08:31;17.60;1.00
10278;DHT22;5184;51.376;7.148;2022-10-17T08:11:03;17.60;1.00
10278;DHT22;5184;51.376;7.148;2022-10-17T08:13:28;17.70;1.00
10278;DHT22;5184;51.376;7.148;2022-10-17T08:15:57;17.70;1.00
10278;DHT22;5184;51.376;7.148;2022-10-17T08:18:21;17.80;99.90
10278;DHT22;5184;51.376;7.148;2022-10-17T08:20:48;17.80;99.90
10278;DHT22;5184;51.376;7.148;2022-10-17T08:23:15;17.90;1.00
10278;DHT22;5184;51.376;7.148;2022-10-17T08:25:42;17.90;99.90
10278;DHT22;5184;51.376;7.148;2022-10-17T08:28:10;18.00;99.90
10278;DHT22;5184;51.376;7.148;2022-10-17T08:30:36;18.00;94.70
10278;DHT22;5184;51.376;7.148;2022-10-17T08:33:03;18.10;1.00
10278;DHT22;5184;51.376;7.148;2022-10-17T08:35:30;18.10;99.90
10278;DHT22;5184;51.376;7.148;2022-10-17T08:37:57;18.10;5.80
10278;DHT22;5184;51.376;7.148;2022-10-17T08:40:24;18.20;1.00
10278;DHT22;5184;51.376;7.148;2022-10-17T08:43:01;18.30;1.00
10278;DHT22;5184;51.376;7.148;2022-10-17T08:45:29;18.30;1.00
10278;DHT22;5184;51.376;7.148;2022-10-17T08:47:57;18.40;1.00
10278;DHT22;5184;51.376;7.148;2022-10-17T08:50:28;18.40;1.00
10278;DHT22;5184;51.376;7.148;2022-10-17T08:52:54;18.50;99.90
10278;DHT22;5184;51.376;7.148;2022-10-17T08:55:27;18.70;99.90
10278;DHT22;5184;51.376;7.148;2022-10-17T08:57:48;18.80;99.90
10278;DHT22;5184;51.376;7.148;2022-10-17T09:00:17;19.10;7.60
10278;DHT22;5184;51.376;7.148;2022-10-17T09:02:56;19.00;1.00
10278;DHT22;5184;51.376;7.148;2022-10-17T09:05:36;19.10;1.00
10278;DHT22;5184;51.376;7.148;2022-10-17T09:08:08;19.30;1.00
10278;DHT22;5184;51.376;7.148;2022-10-17T09:10:51;19.30;1.00
10278;DHT22;5184;51.376;7.148;2022-10-17T09:16:21;19.50;99.90
10278;DHT22;5184;51.376;7.148;2022-10-17T09:18:57;19.40;1.00
10278;DHT22;5184;51.376;7.148;2022-10-17T09:21:20;19.40;99.90
10278;DHT22;5184;51.376;7.148;2022-10-17T09:23:49;19.40;99.90
10278;DHT22;5184;51.376;7.148;2022-10-17T09:26:14;19.50;1.00
10278;DHT22;5184;51.376;7.148;2022-10-17T09:28:41;19.50;1.00
10278;DHT22;5184;51.376;7.148;2022-10-17T09:31:19;19.50;99.90
10278;DHT22;5184;51.376;7.148;2022-10-17T09:33:44;19.60;99.90
10278;DHT22;5184;51.376;7.148;2022-10-17T09:36:16;19.60;99.90
10278;DHT22;5184;51.376;7.148;2022-10-17T09:38:44;19.60;99.90
10278;DHT22;5184;51.376;7.148;2022-10-17T09:41:15;19.70;99.90
10278;DHT22;5184;51.376;7.148;2022-10-17T09:43:39;19.80;99.90
10278;DHT22;5184;51.376;7.148;2022-10-17T09:46:08;19.80;99.90
10278;DHT22;5184;51.376;7.148;2022-10-17T09:48:37;19.80;99.90
10278;DHT22;5184;51.376;7.148;2022-10-17T09:51:02;19.90;99.90
10278;DHT22;5184;51.376;7.148;2022-10-17T09:53:32;20.00;99.90
10278;DHT22;5184;51.376;7.148;2022-10-17T09:55:59;20.00;99.90
10278;DHT22;5184;51.376;7.148;2022-10-17T09:58:38;20.00;99.90
10278;DHT22;5184;51.376;7.148;2022-10-17T10:00:51;20.00;99.90
10278;DHT22;5184;51.376;7.148;2022-10-17T10:03:20;20.00;99.90
10278;DHT22;5184;51.376;7.148;2022-10-17T10:08:26;20.00;99.90
10278;DHT22;5184;51.376;7.148;2022-10-17T10:10:56;20.00;99.90
10278;DHT22;5184;51.376;7.148;2022-10-17T10:13:19;19.80;99.90
10278;DHT22;5184;51.376;7.148;2022-10-17T10:15:47;19.80;99.90
10278;DHT22;5184;51.376;7.148;2022-10-17T10:18:27;19.70;99.90
10278;DHT22;5184;51.376;7.148;2022-10-17T10:21:04;19.70;99.90
10278;DHT22;5184;51.376;7.148;2022-10-17T10:23:29;19.70;1.00
10278;DHT22;5184;51.376;7.148;2022-10-17T10:25:57;19.70;99.90
10278;DHT22;5184;51.376;7.148;2022-10-17T10:28:25;19.70;99.90
10278;DHT22;5184;51.376;7.148;2022-10-17T10:30:50;19.60;99.90
10278;DHT22;5184;51.376;7.148;2022-10-17T10:33:19;19.60;1.00
10278;DHT22;5184;51.376;7.148;2022-10-17T10:35:50;19.60;99.90
10278;DHT22;5184;51.376;7.148;2022-10-17T10:38:13;19.60;1.00
10278;DHT22;5184;51.376;7.148;2022-10-17T10:40:44;19.60;1.00
10278;DHT22;5184;51.376;7.148;2022-10-17T10:43:19;19.50;1.00
10278;DHT22;5184;51.376;7.148;2022-10-17T10:45:39;19.60;1.00
10278;DHT22;5184;51.376;7.148;2022-10-17T10:50:46;19.80;1.00
10278;DHT22;5184;51.376;7.148;2022-10-17T10:55:57;19.90;1.00
10278;DHT22;5184;51.376;7.148;2022-10-17T10:58:20;19.90;1.00
10278;DHT22;5184;51.376;7.148;2022-10-17T11:00:44;19.90;1.00
10278;DHT22;5184;51.376;7.148;2022-10-17T11:03:17;19.90;1.00
10278;DHT22;5184;51.376;7.148;2022-10-17T11:05:48;19.90;1.00
10278;DHT22;5184;51.376;7.148;2022-10-17T11:08:29;19.90;1.00
10278;DHT22;5184;51.376;7.148;2022-10-17T11:11:12;19.80;1.00
10278;DHT22;5184;51.376;7.148;2022-10-17T11:13:38;19.80;1.00
10278;DHT22;5184;51.376;7.148;2022-10-17T11:18:45;19.80;99.90
10278;DHT22;5184;51.376;7.148;2022-10-17T11:21:17;19.80;1.00
10278;DHT22;5184;51.376;7.148;2022-10-17T11:23:47;19.90;1.00
10278;DHT22;5184;51.376;7.148;2022-10-17T11:26:23;19.90;1.00
10278;DHT22;5184;51.376;7.148;2022-10-17T11:28:49;20.00;1.00
10278;DHT22;5184;51.376;7.148;2022-10-17T11:31:16;20.00;1.00
10278;DHT22;5184;51.376;7.148;2022-10-17T11:33:47;20.10;46.80
10278;DHT22;5184;51.376;7.148;2022-10-17T11:36:12;20.10;1.00
10278;DHT22;5184;51.376;7.148;2022-10-17T11:38:44;20.10;1.00
10278;DHT22;5184;51.376;7.148;2022-10-17T11:41:14;20.00;1.00
10278;DHT22;5184;51.376;7.148;2022-10-17T11:43:47;20.10;1.00
10278;DHT22;5184;51.376;7.148;2022-10-17T11:46:17;20.10;3.50
10278;DHT22;5184;51.376;7.148;2022-10-17T11:48:47;20.10;99.90
10278;DHT22;5184;51.376;7.148;2022-10-17T11:53:56;20.00;25.00
10278;DHT22;5184;51.376;7.148;2022-10-17T11:56:27;20.00;17.10
10278;DHT22;5184;51.376;7.148;2022-10-17T11:58:56;20.10;1.00
10278;DHT22;5184;51.376;7.148;2022-10-17T12:04:04;20.10;1.00
10278;DHT22;5184;51.376;7.148;2022-10-17T12:06:55;21.30;1.00
10278;DHT22;5184;51.376;7.148;2022-10-17T12:09:23;20.10;1.00
10278;DHT22;5184;51.376;7.148;2022-10-17T12:11:52;20.10;1.00
10278;DHT22;5184;51.376;7.148;2022-10-17T12:16:55;19.90;1.00
10278;DHT22;5184;51.376;7.148;2022-10-17T12:19:23;19.90;1.00
10278;DHT22;5184;51.376;7.148;2022-10-17T12:21:56;19.90;11.40
10278;DHT22;5184;51.376;7.148;2022-10-17T12:24:33;19.90;99.90
10278;DHT22;5184;51.376;7.148;2022-10-17T12:29:44;19.80;99.90
10278;DHT22;5184;51.376;7.148;2022-10-17T12:32:11;19.90;99.90
10278;DHT22;5184;51.376;7.148;2022-10-17T12:34:37;19.90;99.90
10278;DHT22;5184;51.376;7.148;2022-10-17T12:37:04;19.90;99.90
10278;DHT22;5184;51.376;7.148;2022-10-17T12:39:47;19.80;99.90
10278;DHT22;5184;51.376;7.148;2022-10-17T12:42:28;19.80;99.90
10278;DHT22;5184;51.376;7.148;2022-10-17T12:44:55;19.80;1.00
10278;DHT22;5184;51.376;7.148;2022-10-17T12:47:34;19.80;1.00
10278;DHT22;5184;51.376;7.148;2022-10-17T12:49:54;19.80;1.00
10278;DHT22;5184;51.376;7.148;2022-10-17T12:55:11;19.70;1.00
10278;DHT22;5184;51.376;7.148;2022-10-17T13:00:34;19.70;1.00
10278;DHT22;5184;51.376;7.148;2022-10-17T13:03:03;19.60;1.00
10278;DHT22;5184;51.376;7.148;2022-10-17T13:05:29;19.60;99.90
10278;DHT22;5184;51.376;7.148;2022-10-17T13:07:56;19.60;99.90
10278;DHT22;5184;51.376;7.148;2022-10-17T13:10:24;19.50;99.90
10278;DHT22;5184;51.376;7.148;2022-10-17T13:12:51;19.50;99.90
10278;DHT22;5184;51.376;7.148;2022-10-17T13:15:18;19.50;99.90
10278;DHT22;5184;51.376;7.148;2022-10-17T13:17:44;19.50;1.00
10278;DHT22;5184;51.376;7.148;2022-10-17T13:20:17;19.50;43.00
10278;DHT22;5184;51.376;7.148;2022-10-17T13:22:44;19.30;96.00
10278;DHT22;5184;51.376;7.148;2022-10-17T13:25:15;19.30;99.90
10278;DHT22;5184;51.376;7.148;2022-10-17T13:27:41;19.30;99.90
10278;DHT22;5184;51.376;7.148;2022-10-17T13:30:28;19.30;99.90
10278;DHT22;5184;51.376;7.148;2022-10-17T13:32:55;19.30;54.30
10278;DHT22;5184;51.376;7.148;2022-10-17T13:35:24;19.00;1.00
10278;DHT22;5184;51.376;7.148;2022-10-17T13:37:50;19.30;1.00
10278;DHT22;5184;51.376;7.148;2022-10-17T13:40:24;19.20;1.00
10278;DHT22;5184;51.376;7.148;2022-10-17T13:42:50;19.10;38.20
10278;DHT22;5184;51.376;7.148;2022-10-17T13:45:33;19.10;1.00
10278;DHT22;5184;51.376;7.148;2022-10-17T13:47:59;19.00;1.00
10278;DHT22;5184;51.376;7.148;2022-10-17T13:50:31;18.90;25.40
10278;DHT22;5184;51.376;7.148;2022-10-17T13:53:05;18.90;22.30
10278;DHT22;5184;51.376;7.148;2022-10-17T13:55:30;18.80;99.90
10278;DHT22;5184;51.376;7.148;2022-10-17T13:58:08;18.80;99.90
10278;DHT22;5184;51.376;7.148;2022-10-17T14:00:23;18.80;1.00
10278;DHT22;5184;51.376;7.148;2022-10-17T14:02:51;18.80;99.90
10278;DHT22;5184;51.376;7.148;2022-10-17T14:05:19;18.80;99.90
10278;DHT22;5184;51.376;7.148;2022-10-17T14:07:49;18.80;95.90
10278;DHT22;5184;51.376;7.148;2022-10-17T14:10:25;18.80;1.00
10278;DHT22;5184;51.376;7.148;2022-10-17T14:12:53;18.80;1.00
10278;DHT22;5184;51.376;7.148;2022-10-17T14:15:20;18.80;99.90
10278;DHT22;5184;51.376;7.148;2022-10-17T14:17:52;18.90;1.00
10278;DHT22;5184;51.376;7.148;2022-10-17T14:20:16;18.90;99.90
10278;DHT22;5184;51.376;7.148;2022-10-17T14:22:42;18.90;1.00
10278;DHT22;5184;51.376;7.148;2022-10-17T14:27:54;19.00;1.00
10278;DHT22;5184;51.376;7.148;2022-10-17T14:30:34;19.10;99.90
10278;DHT22;5184;51.376;7.148;2022-10-17T14:33:00;19.00;99.90
10278;DHT22;5184;51.376;7.148;2022-10-17T14:35:26;19.00;99.90
10278;DHT22;5184;51.376;7.148;2022-10-17T14:37:56;19.00;1.00
10278;DHT22;5184;51.376;7.148;2022-10-17T14:40:20;18.90;1.00
10278;DHT22;5184;51.376;7.148;2022-10-17T14:42:46;18.90;1.00
10278;DHT22;5184;51.376;7.148;2022-10-17T14:45:14;18.90;1.00
10278;DHT22;5184;51.376;7.148;2022-10-17T14:47:40;18.80;1.00
10278;DHT22;5184;51.376;7.148;2022-10-17T14:50:26;18.80;1.00
10278;DHT22;5184;51.376;7.148;2022-10-17T14:52:59;18.80;1.00
10278;DHT22;5184;51.376;7.148;2022-10-17T14:55:25;18.80;1.00
10278;DHT22;5184;51.376;7.148;2022-10-17T14:57:51;18.80;99.90
10278;DHT22;5184;51.376;7.148;2022-10-17T15:00:18;18.80;99.90
10278;DHT22;5184;51.376;7.148;2022-10-17T15:02:45;18.80;1.00
10278;DHT22;5184;51.376;7.148;2022-10-17T15:05:11;18.80;1.00
10278;DHT22;5184;51.376;7.148;2022-10-17T15:07:38;18.80;99.90
10278;DHT22;5184;51.376;7.148;2022-10-17T15:10:06;18.80;99.90
10278;DHT22;5184;51.376;7.148;2022-10-17T15:12:33;18.80;1.00
10278;DHT22;5184;51.376;7.148;2022-10-17T15:15:00;18.90;1.00
10278;DHT22;5184;51.376;7.148;2022-10-17T15:17:28;18.90;99.90
10278;DHT22;5184;51.376;7.148;2022-10-17T15:19:54;19.00;99.90
10278;DHT22;5184;51.376;7.148;2022-10-17T15:22:22;19.00;1.00
10278;DHT22;5184;51.376;7.148;2022-10-17T15:24:49;18.90;1.00
10278;DHT22;5184;51.376;7.148;2022-10-17T15:27:17;18.90;1.00
10278;DHT22;5184;51.376;7.148;2022-10-17T15:29:45;18.90;99.90
10278;DHT22;5184;51.376;7.148;2022-10-17T15:32:12;18.80;1.00
10278;DHT22;5184;51.376;7.148;2022-10-17T15:34:39;18.80;1.00
10278;DHT22;5184;51.376;7.148;2022-10-17T15:37:13;18.70;99.90
10278;DHT22;5184;51.376;7.148;2022-10-17T15:39:34;18.60;99.90
10278;DHT22;5184;51.376;7.148;2022-10-17T15:42:01;18.60;99.90
10278;DHT22;5184;51.376;7.148;2022-10-17T15:44:27;18.50;42.10
10278;DHT22;5184;51.376;7.148;2022-10-17T15:46:54;18.40;92.80
10278;DHT22;5184;51.376;7.148;2022-10-17T15:49:20;18.40;1.00
10278;DHT22;5184;51.376;7.148;2022-10-17T15:51:47;18.20;99.90
10278;DHT22;5184;51.376;7.148;2022-10-17T15:54:14;18.20;1.00
10278;DHT22;5184;51.376;7.148;2022-10-17T15:56:42;18.10;99.90
10278;DHT22;5184;51.376;7.148;2022-10-17T15:59:14;18.10;1.00
10278;DHT22;5184;51.376;7.148;2022-10-17T16:01:38;18.10;1.00
10278;DHT22;5184;51.376;7.148;2022-10-17T16:04:04;18.10;1.00
10278;DHT22;5184;51.376;7.148;2022-10-17T16:06:31;18.00;1.00
10278;DHT22;5184;51.376;7.148;2022-10-17T16:08:59;18.00;1.00
10278;DHT22;5184;51.376;7.148;2022-10-17T16:11:30;17.90;1.00
10278;DHT22;5184;51.376;7.148;2022-10-17T16:13:55;17.90;1.00
10278;DHT22;5184;51.376;7.148;2022-10-17T16:16:22;17.90;66.30
10278;DHT22;5184;51.376;7.148;2022-10-17T16:18:49;17.90;99.90
10278;DHT22;5184;51.376;7.148;2022-10-17T16:21:16;17.80;99.90
10278;DHT22;5184;51.376;7.148;2022-10-17T16:23:44;17.70;99.90
10278;DHT22;5184;51.376;7.148;2022-10-17T16:26:10;17.70;99.90
10278;DHT22;5184;51.376;7.148;2022-10-17T16:28:37;17.70;99.90
10278;DHT22;5184;51.376;7.148;2022-10-17T16:31:03;17.60;99.90
10278;DHT22;5184;51.376;7.148;2022-10-17T16:33:30;17.60;99.90
10278;DHT22;5184;51.376;7.148;2022-10-17T16:35:57;17.50;99.90
10278;DHT22;5184;51.376;7.148;2022-10-17T16:38:23;17.40;99.90
10278;DHT22;5184;51.376;7.148;2022-10-17T16:40:51;17.40;99.90
10278;DHT22;5184;51.376;7.148;2022-10-17T16:43:18;17.30;99.90